Time;durP1;ratioP1;P1;durP2;ratioP2;P2;SDS_P1;SDS_P2;PMS_P1;PMS_P2;Temp;Humidity;BMP_temperature;BMP_pressure;BME280_temperature;BME280_humidity;BME280_pressure;Samples;Min_cycle;Max_cycle;Signal;HPM_P1;HPM_P2
2022/09/10 00:00:42;;;;;;;8.27;1.98;;;14.20;99.90;;;13.50;100.00;101366.72;5171430;22;20099;-74
2022/09/10 00:02:44;;;;;;;8.65;2.60;;;14.20;99.90;;;13.31;100.00;101343.94;5224109;22;20004;-74
2022/09/10 00:04:44;;;;;;;12.70;3.00;;;14.20;99.90;;;13.39;100.00;101364.34;5196787;22;20007;-74
2022/09/10 00:06:45;;;;;;;5.50;2.92;;;14.20;99.90;;;13.32;100.00;101336.84;5224359;22;20007;-74
2022/09/10 00:08:48;;;;;;;6.07;2.85;;;14.10;99.90;;;13.50;100.00;101377.34;5197307;22;19999;-74
2022/09/10 00:10:50;;;;;;;9.88;2.85;;;14.10;99.90;;;13.36;100.00;101360.19;5197070;22;20004;-74
2022/09/10 00:12:51;;;;;;;9.43;3.40;;;14.10;99.90;;;13.28;100.00;101347.75;5224039;22;20003;-74
2022/09/10 00:14:53;;;;;;;8.32;2.47;;;14.10;99.90;;;13.47;100.00;101383.75;5171528;23;20062;-74
2022/09/10 00:16:54;;;;;;;10.90;3.20;;;14.10;99.90;;;13.36;100.00;101362.00;5224182;22;20026;-74
2022/09/10 00:18:56;;;;;;;6.15;2.55;;;14.10;99.90;;;13.39;100.00;101380.25;5222096;22;20094;-74
2022/09/10 00:20:58;;;;;;;7.90;2.92;;;14.10;99.90;;;13.24;100.00;101353.50;5223916;22;20022;-74
2022/09/10 00:22:59;;;;;;;6.50;3.00;;;14.00;99.90;;;13.24;100.00;101354.34;5171430;23;20012;-74
2022/09/10 00:25:00;;;;;;;9.02;2.90;;;14.00;99.90;;;13.34;100.00;101374.59;5223891;22;20018;-74
2022/09/10 00:27:02;;;;;;;5.50;2.80;;;14.00;99.90;;;13.36;100.00;101377.91;5171583;23;20004;-74
2022/09/10 00:29:05;;;;;;;9.75;2.90;;;14.00;99.90;;;13.32;100.00;101373.94;5223572;22;20011;-74
2022/09/10 00:31:06;;;;;;;6.07;2.53;;;13.90;99.90;;;13.18;100.00;101351.50;5197205;22;20015;-74
2022/09/10 00:33:08;;;;;;;8.32;3.90;;;14.00;99.90;;;13.17;100.00;101345.34;5224206;22;20003;-74
2022/09/10 00:35:09;;;;;;;12.40;3.45;;;14.00;99.90;;;13.17;100.00;101348.00;5171433;22;20068;-74
2022/09/10 00:37:10;;;;;;;8.93;3.15;;;13.90;99.90;;;13.37;100.00;101376.94;5223910;22;20012;-74
2022/09/10 00:39:17;;;;;;;7.00;2.40;;;14.00;99.90;;;13.24;100.00;101361.47;5196935;22;20003;-74
2022/09/10 00:41:22;;;;;;;9.20;2.67;;;14.00;99.90;;;13.18;100.00;101356.78;5196471;22;20015;-74
2022/09/10 00:43:23;;;;;;;12.73;3.85;;;13.90;99.90;;;13.27;100.00;101364.63;5197128;22;20456;-74
2022/09/10 00:45:32;;;;;;;9.15;3.63;;;13.90;99.90;;;13.23;100.00;101355.31;5196856;22;20359;-74
2022/09/10 00:47:38;;;;;;;8.60;3.28;;;14.00;99.90;;;13.27;100.00;101363.78;5197869;22;20000;-74
2022/09/10 00:49:47;;;;;;;7.80;2.72;;;14.00;99.90;;;13.18;100.00;101351.50;5196235;22;20470;-74
2022/09/10 00:51:52;;;;;;;8.48;3.70;;;14.00;99.90;;;13.22;100.00;101356.34;5197207;22;20011;-74
2022/09/10 00:53:54;;;;;;;7.53;3.20;;;13.90;99.90;;;13.13;100.00;101349.34;5196697;22;20061;-74
2022/09/10 00:56:01;;;;;;;13.75;4.28;;;14.00;99.90;;;13.21;100.00;101357.31;5223859;22;20010;-74
2022/09/10 00:58:05;;;;;;;5.82;2.95;;;13.90;99.90;;;13.26;100.00;101367.44;5172437;22;20360;-74
2022/09/10 01:00:09;;;;;;;;;;;13.90;99.90;;;13.21;100.00;101369.72;5224365;22;20007;-74
2022/09/10 01:02:10;;;;;;;11.30;3.80;;;13.90;99.90;;;13.20;100.00;101374.19;5224083;22;19903;-74
2022/09/10 01:04:11;;;;;;;5.72;3.47;;;13.90;99.90;;;13.11;100.00;101358.44;5196055;22;20015;-74
2022/09/10 01:06:12;;;;;;;14.57;3.90;;;13.90;99.90;;;13.22;100.00;101366.09;5196939;22;20527;-74
2022/09/10 01:08:18;;;;;;;7.57;4.28;;;13.90;99.90;;;13.14;100.00;101345.69;5224123;22;20076;-74
2022/09/10 01:10:29;;;;;;;12.80;3.60;;;13.90;99.90;;;13.10;100.00;101346.16;5224054;22;20000;-74
2022/09/10 01:13:17;;;;;;;10.85;3.90;;;13.90;99.90;;;13.11;100.00;101343.34;5197769;22;20010;-74
2022/09/10 01:15:45;;;;;;;13.00;3.60;;;13.90;99.90;;;13.21;100.00;101367.91;5223745;22;20083;-74
2022/09/10 01:18:07;;;;;;;8.48;3.15;;;13.90;99.90;;;13.22;100.00;101372.22;5197107;22;20007;-74
2022/09/10 01:20:19;;;;;;;7.50;3.13;;;13.90;99.90;;;13.22;100.00;101369.59;5223361;22;20003;-74
2022/09/10 01:22:53;;;;;;;9.05;3.22;;;13.90;99.90;;;13.19;100.00;101367.25;5196419;22;20079;-74
2022/09/10 01:25:38;;;;;;;8.02;3.85;;;13.80;99.90;;;13.17;100.00;101365.75;5223715;22;20072;-74
2022/09/10 01:27:56;;;;;;;12.82;4.82;;;13.80;99.90;;;13.06;100.00;101350.06;5103586;22;20028;-74
2022/09/10 01:30:08;;;;;;;9.13;3.30;;;13.80;99.90;;;13.17;100.00;101376.34;5197380;22;20436;-74
2022/09/10 01:32:20;;;;;;;9.40;3.22;;;13.90;99.90;;;13.17;100.00;101374.50;5223762;22;20489;-74
2022/09/10 01:46:17;;;;;;;;;;;;;;;;;;;;;
2022/09/10 01:49:52;;;;;;;;;;;;;;;;;;;;;
2022/09/10 02:56:58;;;;;;;;;;;;;;;;;;;;;
2022/09/10 03:40:54;;;;;;;;;;;;;;;;;;;;;
2022/09/10 03:44:15;;;;;;;;;;;;;;;;;;;;;
2022/09/10 03:57:24;;;;;;;;;;;;;;;;;;;;;
2022/09/10 05:32:13;;;;;;;;;;;;;;;;;;;;;
2022/09/10 06:57:08;;;;;;;;;;;;;;;;;;;;;
2022/09/10 07:44:44;;;;;;;;;;;;;;;;;;;;;
2022/09/10 08:25:29;;;;;;;;;;;;;;;;;;;;;
